Time;durP1;ratioP1;P1;durP2;ratioP2;P2;SDS_P1;SDS_P2;PMS_P1;PMS_P2;Temp;Humidity;BMP_temperature;BMP_pressure;BME280_temperature;BME280_humidity;BME280_pressure;Samples;Min_cycle;Max_cycle;Signal;HPM_P1;HPM_P2
2022/10/26 00:01:18;;;;;;;78.53;27.85;;;11.50;99.90;;;;;;5053474;28;20071;-67
2022/10/26 00:03:45;;;;;;;93.88;30.92;;;11.50;99.90;;;;;;5053256;28;20023;-67
2022/10/26 00:06:13;;;;;;;72.15;27.38;;;11.50;99.90;;;;;;5071209;28;20477;-67
2022/10/26 00:08:39;;;;;;;62.80;25.17;;;11.40;99.90;;;;;;5072898;28;20028;-67
2022/10/26 00:11:06;;;;;;;100.40;32.47;;;11.40;99.90;;;;;;5073187;28;20029;-67
2022/10/26 00:13:32;;;;;;;70.13;29.42;;;11.50;99.90;;;;;;5072947;28;20044;-67
2022/10/26 00:15:58;;;;;;;89.93;30.30;;;11.50;99.90;;;;;;5073154;28;20025;-67
2022/10/26 00:18:24;;;;;;;99.38;33.38;;;11.60;99.90;;;;;;5072814;28;20040;-67
2022/10/26 00:20:50;;;;;;;84.80;32.92;;;11.60;99.90;;;;;;5072635;28;20024;-67
2022/10/26 00:23:16;;;;;;;93.50;32.00;;;11.50;99.90;;;;;;5073111;28;20020;-67
2022/10/26 00:25:41;;;;;;;74.28;30.50;;;11.50;99.90;;;;;;5073096;28;20086;-67
2022/10/26 00:28:07;;;;;;;92.45;31.25;;;11.40;99.90;;;;;;5073071;28;20029;-67
2022/10/26 00:30:38;;;;;;;81.38;30.00;;;11.30;99.90;;;;;;5073255;28;20028;-67
2022/10/26 00:33:04;;;;;;;63.92;27.65;;;11.20;99.90;;;;;;5073074;28;20032;-67
2022/10/26 00:35:29;;;;;;;79.25;31.25;;;11.00;99.90;;;;;;5072968;28;20028;-67
2022/10/26 00:37:55;;;;;;;81.00;30.35;;;11.00;99.90;;;;;;5054760;28;20086;-66
2022/10/26 00:40:21;;;;;;;70.05;31.17;;;11.00;99.90;;;;;;5052653;28;20090;-66
2022/10/26 00:42:46;;;;;;;101.22;32.95;;;11.00;99.90;;;;;;5053455;28;20403;-67
2022/10/26 00:45:19;;;;;;;77.28;31.70;;;11.00;99.90;;;;;;5052610;28;20140;-67
2022/10/26 00:48:15;;;;;;;106.47;35.10;;;11.00;99.90;;;;;;5052844;28;20040;-67
2022/10/26 00:50:44;;;;;;;97.15;30.90;;;11.00;99.90;;;;;;5052295;28;20036;-67
2022/10/26 00:53:11;;;;;;;91.93;32.92;;;10.90;99.90;;;;;;5056147;28;20060;-67
2022/10/26 00:55:42;;;;;;;112.53;36.85;;;11.00;99.90;;;;;;5056248;28;20029;-67
2022/10/26 00:58:09;;;;;;;96.93;34.00;;;11.00;99.90;;;;;;5056457;28;20431;-67
2022/10/26 01:00:35;;;;;;;100.47;33.88;;;11.10;99.90;;;;;;5056224;28;20064;-67
2022/10/26 01:03:05;;;;;;;121.38;39.17;;;11.10;99.90;;;;;;5056118;28;20112;-67
2022/10/26 01:05:32;;;;;;;109.88;35.38;;;11.10;99.90;;;;;;5056046;28;20453;-66
2022/10/26 01:07:57;;;;;;;92.90;33.35;;;11.00;99.90;;;;;;5056254;28;20081;-66
2022/10/26 01:10:26;;;;;;;92.32;34.25;;;11.00;99.90;;;;;;5056302;28;20028;-67
2022/10/26 01:12:53;;;;;;;82.65;34.65;;;10.80;99.90;;;;;;5055940;28;20132;-67
2022/10/26 01:15:22;;;;;;;84.38;33.75;;;10.80;99.90;;;;;;5056132;28;20029;-67
2022/10/26 01:17:56;;;;;;;91.45;34.20;;;10.70;99.90;;;;;;5055727;28;20063;-67
2022/10/26 01:20:43;;;;;;;103.80;36.38;;;10.80;99.90;;;;;;5056103;28;20066;-67
2022/10/26 01:23:28;;;;;;;112.07;36.53;;;10.80;99.90;;;;;;5055798;28;20021;-67
2022/10/26 01:26:24;;;;;;;99.65;36.65;;;10.70;99.90;;;;;;5056041;28;20092;-67
2022/10/26 01:29:13;;;;;;;118.85;39.45;;;10.70;99.90;;;;;;5055717;28;20043;-67
2022/10/26 01:31:57;;;;;;;122.45;39.42;;;10.70;99.90;;;;;;5055910;28;20112;-67
2022/10/26 01:34:38;;;;;;;120.47;39.40;;;10.80;99.90;;;;;;5055624;28;20376;-67
2022/10/26 01:37:16;;;;;;;94.78;36.17;;;10.90;99.90;;;;;;5055414;28;20036;-67
2022/10/26 01:39:51;;;;;;;130.98;41.63;;;11.00;99.90;;;;;;5055476;28;20021;-67
2022/10/26 01:42:20;;;;;;;132.63;41.42;;;11.10;99.90;;;;;;5055414;28;20032;-67
2022/10/26 01:44:52;;;;;;;124.70;41.50;;;11.10;99.90;;;;;;5055350;28;20025;-67
2022/10/26 01:47:19;;;;;;;113.97;40.10;;;11.00;99.90;;;;;;5055560;28;20388;-67
2022/10/26 01:49:51;;;;;;;108.57;39.53;;;10.90;99.90;;;;;;5055168;28;20145;-67
2022/10/26 01:52:20;;;;;;;131.52;39.35;;;10.80;99.90;;;;;;5055769;28;20491;-67
2022/10/26 01:54:45;;;;;;;123.07;41.38;;;10.80;99.90;;;;;;5055404;28;20033;-67
2022/10/26 01:57:14;;;;;;;107.97;39.75;;;10.90;99.90;;;;;;5055393;28;20366;-67
2022/10/26 02:00:01;;;;;;;139.40;43.75;;;11.10;99.90;;;;;;5055367;28;20056;-67
2022/10/26 02:02:51;;;;;;;129.75;42.83;;;11.20;99.90;;;;;;5054693;28;20021;-67
2022/10/26 02:05:44;;;;;;;122.78;42.10;;;11.20;99.90;;;;;;5054979;28;20100;-67
2022/10/26 02:08:15;;;;;;;120.85;40.50;;;11.30;99.90;;;;;;5055733;28;20049;-67
2022/10/26 02:11:04;;;;;;;134.35;41.70;;;11.30;99.90;;;;;;5054817;28;20413;-67
2022/10/26 02:13:47;;;;;;;149.35;45.00;;;11.40;99.90;;;;;;5055082;28;20021;-67
2022/10/26 02:16:24;;;;;;;131.82;45.03;;;11.40;99.90;;;;;;5055099;28;20035;-67
2022/10/26 02:19:02;;;;;;;132.95;43.28;;;11.40;99.90;;;;;;5054891;28;20385;-67
2022/10/26 02:21:35;;;;;;;137.68;43.50;;;11.50;99.90;;;;;;5054974;28;20079;-67
2022/10/26 02:24:02;;;;;;;104.38;38.15;;;11.40;99.90;;;;;;5054940;28;20036;-67
2022/10/26 02:26:29;;;;;;;101.03;37.72;;;11.40;99.90;;;;;;5054501;28;20033;-67
2022/10/26 02:28:59;;;;;;;142.55;42.70;;;11.40;99.90;;;;;;5054697;28;20446;-67
2022/10/26 02:31:26;;;;;;;118.63;40.70;;;11.40;99.90;;;;;;5036579;28;20063;-67
2022/10/26 02:33:54;;;;;;;132.00;43.15;;;11.50;99.90;;;;;;5054963;28;20354;-67
2022/10/26 02:36:26;;;;;;;123.40;40.65;;;11.40;99.90;;;;;;5054348;28;20017;-67
2022/10/26 02:38:53;;;;;;;137.88;41.60;;;11.40;99.90;;;;;;5053640;28;20028;-66
2022/10/26 02:41:22;;;;;;;111.68;39.25;;;11.50;99.90;;;;;;5072358;28;20070;-66
2022/10/26 02:44:18;;;;;;;110.40;40.72;;;11.50;99.90;;;;;;5065891;28;20543;-66
2022/10/26 02:46:44;;;;;;;131.40;42.22;;;11.40;99.90;;;;;;5034477;28;20115;-66
2022/10/26 02:49:10;;;;;;;102.72;35.78;;;11.40;99.90;;;;;;5074157;28;20032;-66
2022/10/26 02:51:43;;;;;;;100.15;35.70;;;11.20;99.90;;;;;;5074257;28;20024;-66
2022/10/26 02:54:14;;;;;;;78.32;30.95;;;11.10;99.90;;;;;;5074323;28;20025;-66
2022/10/26 02:57:03;;;;;;;72.75;29.70;;;11.00;99.90;;;;;;5073832;28;20093;-66
2022/10/26 02:59:33;;;;;;;78.13;30.25;;;10.80;99.90;;;;;;5059239;28;20085;-66
2022/10/26 03:01:59;;;;;;;85.57;32.85;;;10.60;99.90;;;;;;5057270;28;20421;-66
2022/10/26 03:04:30;;;;;;;75.88;31.55;;;10.50;99.90;;;;;;5053783;28;20063;-66
2022/10/26 03:06:55;;;;;;;70.95;31.10;;;10.30;99.90;;;;;;5054110;28;20416;-67
2022/10/26 03:09:21;;;;;;;81.45;32.28;;;10.20;99.90;;;;;;5054231;28;20021;-67
2022/10/26 03:11:46;;;;;;;102.20;36.83;;;10.10;99.90;;;;;;5053701;28;20029;-67
2022/10/26 03:14:12;;;;;;;97.43;36.42;;;10.10;99.90;;;;;;5067065;28;20037;-66
2022/10/26 03:16:38;;;;;;;108.70;37.25;;;10.00;99.90;;;;;;5073546;28;20396;-66
2022/10/26 03:19:03;;;;;;;102.90;36.58;;;10.10;99.90;;;;;;5062493;28;20059;-66
2022/10/26 03:21:28;;;;;;;101.40;35.75;;;10.10;99.90;;;;;;5073452;28;20020;-66
2022/10/26 03:23:54;;;;;;;107.47;35.95;;;10.00;99.90;;;;;;5073689;28;20599;-66
2022/10/26 03:26:19;;;;;;;91.65;35.13;;;10.00;99.90;;;;;;5059675;28;20032;-66
2022/10/26 03:28:45;;;;;;;85.43;34.58;;;9.90;99.90;;;;;;5073910;28;20107;-66
2022/10/26 03:31:11;;;;;;;88.80;34.50;;;9.80;99.90;;;;;;5053943;28;20028;-66
2022/10/26 03:33:37;;;;;;;91.15;33.40;;;9.70;99.90;;;;;;5066804;28;20082;-66
2022/10/26 03:36:02;;;;;;;84.32;32.85;;;9.50;99.90;;;;;;5073303;28;20036;-66
2022/10/26 03:38:28;;;;;;;77.13;29.63;;;9.50;99.90;;;;;;5073247;28;20033;-67
2022/10/26 03:40:53;;;;;;;92.03;35.05;;;9.40;99.90;;;;;;5073186;28;20475;-67
2022/10/26 03:43:19;;;;;;;84.82;31.80;;;9.40;99.90;;;;;;5054765;28;20029;-67
2022/10/26 03:45:44;;;;;;;94.85;34.00;;;9.30;99.90;;;;;;5066690;28;20112;-67
2022/10/26 03:48:10;;;;;;;83.10;32.45;;;9.30;99.90;;;;;;5073199;28;20035;-67
2022/10/26 03:50:35;;;;;;;78.63;33.40;;;9.30;99.90;;;;;;5057663;28;20021;-66
2022/10/26 03:53:01;;;;;;;111.80;35.05;;;9.20;99.90;;;;;;5054196;28;20029;-66
2022/10/26 03:55:27;;;;;;;134.57;41.30;;;9.20;99.90;;;;;;5073076;28;20480;-66
2022/10/26 03:57:52;;;;;;;109.20;36.35;;;9.20;99.90;;;;;;5073033;28;20496;-66
2022/10/26 04:00:18;;;;;;;109.80;39.60;;;9.30;99.90;;;;;;5096067;23;20049;-71
2022/10/26 04:02:47;;;;;;;112.53;37.78;;;9.40;99.90;;;;;;5071028;28;20024;-72
2022/10/26 04:05:13;;;;;;;130.38;40.40;;;9.40;99.90;;;;;;5073393;28;20016;-72
2022/10/26 04:07:38;;;;;;;137.85;44.13;;;9.40;99.90;;;;;;5073043;28;20503;-71
2022/10/26 04:10:05;;;;;;;127.38;39.53;;;9.50;99.90;;;;;;5066565;28;20029;-72
2022/10/26 04:12:30;;;;;;;119.85;38.70;;;9.50;99.90;;;;;;5073105;28;20021;-72
2022/10/26 04:14:58;;;;;;;109.10;36.88;;;9.50;99.90;;;;;;5061870;28;20058;-72
2022/10/26 04:17:24;;;;;;;126.28;37.72;;;9.50;99.90;;;;;;5070374;28;20029;-72
2022/10/26 04:19:50;;;;;;;109.60;37.33;;;9.50;99.90;;;;;;5073230;28;20016;-71
2022/10/26 04:22:15;;;;;;;116.35;34.17;;;9.50;99.90;;;;;;5064316;28;20029;-72
2022/10/26 04:24:41;;;;;;;76.93;31.83;;;9.50;99.90;;;;;;5073191;28;20103;-71
2022/10/26 04:27:06;;;;;;;191.32;40.08;;;9.50;99.90;;;;;;5076624;28;20017;-71
2022/10/26 04:29:32;;;;;;;75.30;29.80;;;9.50;99.90;;;;;;5064420;28;20045;-72
2022/10/26 04:31:57;;;;;;;119.95;28.90;;;9.40;99.90;;;;;;5077364;28;20024;-72
2022/10/26 04:34:23;;;;;;;67.20;31.08;;;9.40;99.90;;;;;;5060899;28;20028;-72
2022/10/26 04:36:48;;;;;;;90.43;31.23;;;9.40;99.90;;;;;;5057015;28;20538;-72
2022/10/26 04:39:14;;;;;;;129.30;32.22;;;9.40;99.90;;;;;;5058451;28;20025;-72
2022/10/26 04:41:39;;;;;;;88.75;33.28;;;9.40;99.90;;;;;;5056901;28;20032;-72
2022/10/26 04:44:05;;;;;;;187.82;38.70;;;9.40;99.90;;;;;;5055522;28;20024;-72
2022/10/26 04:46:30;;;;;;;103.63;34.78;;;9.40;99.90;;;;;;5077010;28;20451;-72
2022/10/26 04:48:56;;;;;;;103.82;32.22;;;9.40;99.90;;;;;;5076863;28;20024;-72
2022/10/26 04:51:22;;;;;;;106.30;33.50;;;9.30;99.90;;;;;;5076318;28;20107;-72
2022/10/26 04:53:47;;;;;;;86.68;31.88;;;9.30;99.90;;;;;;5056756;28;20098;-72
2022/10/26 04:56:12;;;;;;;121.03;37.13;;;9.20;99.90;;;;;;5056827;28;20033;-72
2022/10/26 04:58:38;;;;;;;94.15;34.35;;;9.20;99.90;;;;;;5056668;28;20100;-72
2022/10/26 05:01:04;;;;;;;122.22;37.17;;;9.10;99.90;;;;;;5056618;28;20393;-72
2022/10/26 05:03:29;;;;;;;83.15;32.20;;;9.10;99.90;;;;;;5056628;28;20079;-71
2022/10/26 05:05:58;;;;;;;108.38;36.83;;;9.10;99.90;;;;;;5056855;28;20025;-71
2022/10/26 05:08:23;;;;;;;110.20;38.92;;;9.10;99.90;;;;;;5056396;28;20021;-71
2022/10/26 05:10:49;;;;;;;118.18;38.97;;;9.10;99.90;;;;;;5056434;28;20056;-71
2022/10/26 05:13:16;;;;;;;114.00;40.28;;;9.20;99.90;;;;;;5057392;28;20029;-71
2022/10/26 05:15:41;;;;;;;163.57;43.38;;;9.20;99.90;;;;;;5056273;28;20472;-71
2022/10/26 05:18:08;;;;;;;211.90;41.03;;;9.20;99.90;;;;;;5056339;28;20060;-71
2022/10/26 05:20:34;;;;;;;159.35;40.28;;;9.20;99.90;;;;;;5056055;28;20044;-71
2022/10/26 05:23:05;;;;;;;143.10;41.80;;;9.10;99.90;;;;;;5056391;28;20499;-71
2022/10/26 05:25:34;;;;;;;113.72;38.13;;;9.10;99.90;;;;;;5056024;28;20017;-71
2022/10/26 05:28:03;;;;;;;106.95;37.33;;;9.00;99.90;;;;;;5056323;28;20029;-71
2022/10/26 05:30:29;;;;;;;97.95;36.28;;;8.90;99.90;;;;;;5056366;28;20365;-71
2022/10/26 05:32:59;;;;;;;97.47;36.47;;;8.80;99.90;;;;;;5055994;28;20044;-71
2022/10/26 05:35:25;;;;;;;99.88;36.72;;;8.80;99.90;;;;;;5068400;28;20024;-71
2022/10/26 05:37:52;;;;;;;94.53;36.95;;;8.80;99.90;;;;;;5075126;28;20062;-71
2022/10/26 05:40:17;;;;;;;85.50;30.13;;;8.70;99.90;;;;;;5075765;28;20021;-71
2022/10/26 05:42:44;;;;;;;64.85;25.20;;;8.60;99.90;;;;;;5076052;28;20507;-71
2022/10/26 05:45:10;;;;;;;46.88;22.13;;;8.50;99.90;;;;;;5063850;28;20063;-71
2022/10/26 05:47:40;;;;;;;37.00;18.70;;;8.40;99.90;;;;;;5056116;28;20107;-71
2022/10/26 05:50:06;;;;;;;38.03;17.48;;;8.20;99.90;;;;;;5069956;28;20402;-71
2022/10/26 05:52:43;;;;;;;40.15;17.23;;;8.10;99.90;;;;;;5056459;28;20107;-71
2022/10/26 05:55:14;;;;;;;31.83;16.75;;;8.00;99.90;;;;;;5075564;28;20430;-71
2022/10/26 05:57:40;;;;;;;31.08;15.13;;;7.90;99.90;;;;;;5075464;28;20069;-71
2022/10/26 06:00:15;;;;;;;27.10;16.30;;;7.80;99.90;;;;;;5075546;28;20391;-71
2022/10/26 06:02:52;;;;;;;27.98;16.52;;;7.70;99.90;;;;;;5048239;28;20054;-71
2022/10/26 06:05:25;;;;;;;32.45;18.20;;;7.60;99.90;;;;;;5075855;28;20021;-71
2022/10/26 06:07:50;;;;;;;30.33;17.02;;;7.60;99.90;;;;;;5066254;28;20392;-71
2022/10/26 06:10:17;;;;;;;26.48;16.05;;;7.60;99.90;;;;;;5055208;28;20028;-71
2022/10/26 06:12:44;;;;;;;25.48;15.13;;;7.60;99.90;;;;;;5055282;28;20025;-71
2022/10/26 06:15:15;;;;;;;28.73;16.05;;;7.50;99.90;;;;;;5067480;28;20036;-71
2022/10/26 06:18:04;;;;;;;36.75;18.20;;;7.40;99.90;;;;;;5037338;28;20082;-71
2022/10/26 06:20:43;;;;;;;32.03;18.05;;;7.40;99.90;;;;;;5065468;28;20112;-71
2022/10/26 06:23:32;;;;;;;29.30;16.13;;;7.40;99.90;;;;;;5075089;28;20525;-71
2022/10/26 06:26:16;;;;;;;32.42;17.48;;;7.40;99.90;;;;;;5046620;28;20123;-71
2022/10/26 06:29:00;;;;;;;30.23;17.10;;;7.40;99.90;;;;;;5076094;28;20035;-71
2022/10/26 06:31:26;;;;;;;42.85;18.45;;;7.40;99.90;;;;;;5075773;28;20369;-71
2022/10/26 06:33:58;;;;;;;53.15;20.08;;;7.30;99.90;;;;;;5075718;28;20039;-71
2022/10/26 06:36:28;;;;;;;43.25;20.02;;;7.40;99.90;;;;;;5075300;28;20039;-71
2022/10/26 06:39:03;;;;;;;35.60;19.90;;;7.40;99.90;;;;;;5063585;28;20111;-71
2022/10/26 06:41:31;;;;;;;32.75;18.00;;;7.40;99.90;;;;;;5054786;28;20033;-71
2022/10/26 06:43:57;;;;;;;33.33;19.38;;;7.50;99.90;;;;;;5055903;28;20025;-72
2022/10/26 06:46:31;;;;;;;34.65;18.77;;;7.50;99.90;;;;;;5067020;28;20450;-71
2022/10/26 06:49:15;;;;;;;;;;;7.60;99.90;;;;;;5054981;28;20028;-71
2022/10/26 06:51:48;;;;;;;61.33;22.17;;;7.60;99.90;;;;;;5072635;28;19975;-71
2022/10/26 06:54:48;;;;;;;47.17;22.02;;;7.60;99.90;;;;;;5054347;28;20036;-71
2022/10/26 06:57:15;;;;;;;52.33;24.35;;;7.70;99.90;;;;;;5054670;28;20031;-71
2022/10/26 06:59:54;;;;;;;53.13;25.33;;;7.80;99.90;;;;;;5054066;28;20399;-71
2022/10/26 07:02:20;;;;;;;52.13;23.45;;;7.80;99.90;;;;;;5053236;28;20029;-71
2022/10/26 07:04:46;;;;;;;58.17;25.95;;;7.90;99.90;;;;;;5054061;28;20373;-71
2022/10/26 07:07:20;;;;;;;70.32;25.85;;;7.90;99.90;;;;;;5054152;28;20036;-71
2022/10/26 07:09:46;;;;;;;51.42;25.80;;;8.00;99.90;;;;;;5054044;28;20021;-71
2022/10/26 07:12:12;;;;;;;54.83;23.90;;;8.10;99.90;;;;;;5054350;28;20033;-71
2022/10/26 07:14:38;;;;;;;68.63;26.73;;;8.10;99.90;;;;;;5054103;28;20037;-71
2022/10/26 07:17:04;;;;;;;53.85;26.08;;;8.10;99.90;;;;;;5054382;28;20427;-71
2022/10/26 07:19:30;;;;;;;65.60;27.48;;;8.20;99.90;;;;;;5049493;28;20021;-71
2022/10/26 07:21:58;;;;;;;69.68;28.63;;;8.20;99.90;;;;;;5058090;28;20383;-71
2022/10/26 07:24:24;;;;;;;56.28;25.45;;;8.30;99.90;;;;;;5055912;28;20020;-71
2022/10/26 07:26:49;;;;;;;68.90;29.40;;;8.30;99.90;;;;;;5074185;28;20061;-72
2022/10/26 07:29:16;;;;;;;72.20;28.08;;;8.50;99.90;;;;;;5073690;28;20044;-72
2022/10/26 07:31:42;;;;;;;68.88;28.73;;;8.50;99.90;;;;;;5062432;28;20028;-71
2022/10/26 07:34:08;;;;;;;61.95;27.13;;;8.50;99.90;;;;;;5053884;28;20029;-72
2022/10/26 07:36:35;;;;;;;64.75;28.80;;;8.60;99.90;;;;;;5053623;28;20036;-72
2022/10/26 07:39:01;;;;;;;70.38;27.00;;;8.70;99.90;;;;;;5053454;28;20033;-71
2022/10/26 07:41:27;;;;;;;79.80;31.95;;;8.80;99.90;;;;;;5053471;28;20040;-72
2022/10/26 07:43:53;;;;;;;71.35;28.55;;;8.90;99.90;;;;;;5053684;28;20469;-72
2022/10/26 07:46:18;;;;;;;75.57;28.58;;;9.00;99.90;;;;;;5053891;28;20488;-71
2022/10/26 07:48:44;;;;;;;73.70;30.30;;;9.20;99.90;;;;;;5053541;28;20033;-72
2022/10/26 07:51:09;;;;;;;84.78;32.88;;;9.30;99.90;;;;;;5053494;28;20075;-71
2022/10/26 07:53:35;;;;;;;94.07;33.50;;;9.50;99.90;;;;;;5053508;28;20064;-71
2022/10/26 07:56:00;;;;;;;73.38;31.27;;;9.60;99.90;;;;;;5053500;28;20087;-72
2022/10/26 07:58:26;;;;;;;82.47;31.83;;;9.70;99.90;;;;;;5053629;28;20021;-72
2022/10/26 08:00:53;;;;;;;91.00;31.48;;;9.80;99.90;;;;;;5052714;28;20448;-71
2022/10/26 08:03:18;;;;;;;96.65;34.35;;;9.90;99.90;;;;;;5053455;28;20032;-71
2022/10/26 08:05:50;;;;;;;70.88;29.55;;;10.00;99.90;;;;;;5053709;28;20377;-72
2022/10/26 08:08:16;;;;;;;76.13;30.73;;;10.10;99.90;;;;;;5053531;28;20030;-71
2022/10/26 08:10:44;;;;;;;74.78;31.33;;;10.10;99.90;;;;;;5053248;28;20481;-71
2022/10/26 08:13:10;;;;;;;88.00;32.95;;;10.20;99.90;;;;;;5053317;28;20029;-72
2022/10/26 08:15:37;;;;;;;100.28;35.70;;;10.30;99.90;;;;;;5053363;28;20078;-71
2022/10/26 08:18:02;;;;;;;81.45;35.55;;;10.40;99.90;;;;;;5053218;28;20029;-71
2022/10/26 08:20:28;;;;;;;92.68;37.17;;;10.50;99.90;;;;;;5053518;28;20018;-71
2022/10/26 08:22:57;;;;;;;91.93;37.13;;;10.60;99.90;;;;;;5053256;28;20021;-71
2022/10/26 08:25:23;;;;;;;107.88;40.25;;;10.70;99.90;;;;;;5053100;28;20100;-71
2022/10/26 08:27:49;;;;;;;79.43;35.70;;;10.80;99.90;;;;;;5053144;28;20468;-72
2022/10/26 08:30:14;;;;;;;87.57;36.65;;;10.90;99.90;;;;;;5053128;28;20386;-71
2022/10/26 08:32:41;;;;;;;78.07;34.67;;;10.90;99.90;;;;;;5053188;28;20025;-71
2022/10/26 08:35:07;;;;;;;89.78;34.10;;;11.00;99.90;;;;;;5053186;28;20090;-71
2022/10/26 08:37:33;;;;;;;85.72;35.47;;;11.00;99.90;;;;;;5053179;28;20029;-71
2022/10/26 08:39:59;;;;;;;72.45;32.92;;;11.00;99.90;;;;;;5053058;28;20132;-72
2022/10/26 08:42:32;;;;;;;97.28;36.72;;;11.10;99.90;;;;;;5053332;28;20025;-71
2022/10/26 08:45:00;;;;;;;;;;;11.10;99.90;;;;;;5053499;28;20472;-72
2022/10/26 08:47:42;;;;;;;76.20;33.53;;;11.10;99.90;;;;;;5053168;28;19955;-71
2022/10/26 08:50:36;;;;;;;78.88;35.58;;;11.20;99.90;;;;;;5067535;28;20040;-71
2022/10/26 08:53:08;;;;;;;;;;;11.30;99.90;;;;;;5062220;28;20044;-71
2022/10/26 08:55:42;;;;;;;64.30;31.60;;;11.40;99.90;;;;;;5052917;28;19947;-71
2022/10/26 08:58:13;;;;;;;;;;;11.50;99.90;;;;;;5058515;28;20108;-73
2022/10/26 09:00:39;;;;;;;77.60;32.75;;;11.60;99.90;;;;;;5073162;28;19912;-73
2022/10/26 09:03:14;;;;;;;80.60;34.50;;;11.80;99.90;;;;;;5072449;28;20086;-73
2022/10/26 09:05:59;;;;;;;81.80;35.80;;;11.90;99.90;;;;;;5053423;28;20416;-73
2022/10/26 09:08:43;;;;;;;86.35;38.03;;;12.10;99.90;;;;;;5045500;28;20068;-73
2022/10/26 09:11:36;;;;;;;89.15;37.60;;;12.20;99.90;;;;;;5062494;28;20036;-72
2022/10/26 09:14:19;;;;;;;77.67;35.63;;;12.30;99.90;;;;;;5075566;28;20028;-72
2022/10/26 09:17:10;;;;;;;77.90;34.88;;;12.40;99.90;;;;;;5076745;28;20391;-74
2022/10/26 09:20:08;;;;;;;73.43;32.90;;;12.50;99.90;;;;;;5076608;28;20434;-73
2022/10/26 09:23:11;;;;;;;79.22;36.20;;;12.70;99.90;;;;;;5065657;28;20432;-71
2022/10/26 09:25:39;;;;;;;72.28;36.03;;;12.70;99.90;;;;;;5062709;28;20082;-71
2022/10/26 09:28:09;;;;;;;78.80;36.17;;;12.60;99.90;;;;;;5075939;28;20039;-71
2022/10/26 09:30:36;;;;;;;76.68;35.10;;;12.70;99.90;;;;;;5076238;28;20514;-72
2022/10/26 09:33:14;;;;;;;64.15;33.00;;;12.60;99.90;;;;;;5055124;28;20025;-71
2022/10/26 09:35:49;;;;;;;75.00;34.13;;;12.60;99.90;;;;;;5056201;28;20035;-72
2022/10/26 09:38:32;;;;;;;65.78;33.60;;;12.80;99.90;;;;;;5056147;28;20029;-72
2022/10/26 09:41:15;;;;;;;69.87;33.67;;;12.90;99.90;;;;;;5056135;28;20025;-72
2022/10/26 09:43:56;;;;;;;78.95;34.00;;;13.00;99.90;;;;;;5055687;28;20021;-72
2022/10/26 09:46:30;;;;;;;62.70;33.10;;;13.10;99.90;;;;;;5056410;28;20370;-72
2022/10/26 09:48:58;;;;;;;;;;;13.20;99.90;;;;;;5056256;28;20029;-72
2022/10/26 09:51:25;;;;;;;65.03;31.90;;;13.30;99.90;;;;;;5055589;28;20410;-72
2022/10/26 09:53:52;;;;;;;64.82;33.78;;;13.40;99.90;;;;;;5055713;28;20031;-72
2022/10/26 09:56:19;;;;;;;57.15;32.25;;;13.40;99.90;;;;;;5062577;28;20055;-72
2022/10/26 09:59:03;;;;;;;60.05;30.98;;;13.50;99.90;;;;;;5067432;28;20052;-73
2022/10/26 10:01:28;;;;;;;54.10;31.15;;;13.40;99.90;;;;;;5097693;22;20075;-69
2022/10/26 10:04:12;;;;;;;58.33;29.45;;;13.40;99.90;;;;;;5073525;28;20053;-69
2022/10/26 10:06:43;;;;;;;50.15;28.42;;;13.30;99.90;;;;;;5074655;28;20411;-70
2022/10/26 10:09:28;;;;;;;51.75;27.23;;;13.40;99.90;;;;;;5074791;28;20384;-70
2022/10/26 10:12:00;;;;;;;55.22;29.50;;;13.40;99.90;;;;;;5060148;28;20488;-70
2022/10/26 10:14:37;;;;;;;62.78;30.98;;;13.50;99.90;;;;;;5064966;28;20025;-69
2022/10/26 10:17:07;;;;;;;46.75;27.98;;;13.50;99.90;;;;;;5054514;28;20027;-69
2022/10/26 10:19:34;;;;;;;50.38;28.33;;;13.60;99.90;;;;;;5058564;28;20021;-70
2022/10/26 10:22:17;;;;;;;50.78;27.70;;;13.70;99.90;;;;;;5044530;28;20201;-69
2022/10/26 10:24:53;;;;;;;48.05;25.20;;;13.80;99.90;;;;;;5065409;28;20103;-70
2022/10/26 10:27:19;;;;;;;46.85;24.92;;;14.00;99.90;;;;;;5067656;28;20391;-70
2022/10/26 10:29:50;;;;;;;37.08;21.70;;;14.10;99.90;;;;;;5070714;28;20099;-70
2022/10/26 10:32:29;;;;;;;36.78;20.23;;;14.10;99.90;;;;;;5062334;28;20028;-70
2022/10/26 10:34:55;;;;;;;41.15;21.42;;;14.10;99.90;;;;;;5060383;28;20558;-70
2022/10/26 10:37:31;;;;;;;37.22;18.08;;;14.20;99.90;;;;;;5055990;28;20032;-70
2022/10/26 10:40:03;;;;;;;32.08;16.90;;;14.30;99.90;;;;;;5065120;28;20023;-70
2022/10/26 10:42:38;;;;;;;31.17;16.15;;;14.40;99.90;;;;;;5054009;28;20481;-70
2022/10/26 10:45:06;;;;;;;23.50;14.52;;;14.50;99.90;;;;;;5054169;28;20495;-70
2022/10/26 10:47:36;;;;;;;25.42;13.55;;;14.70;99.90;;;;;;5052565;28;20112;-70
2022/10/26 10:50:06;;;;;;;29.92;14.25;;;14.80;99.90;;;;;;5054382;28;20063;-70
2022/10/26 10:52:34;;;;;;;21.77;13.40;;;15.00;99.90;;;;;;5053895;28;20471;-70
2022/10/26 10:55:12;;;;;;;27.33;13.27;;;15.20;99.90;;;;;;5053906;28;20112;-70
2022/10/26 10:57:59;;;;;;;23.13;12.55;;;15.40;99.90;;;;;;5053623;28;20025;-70
2022/10/26 11:00:25;;;;;;;19.83;11.23;;;15.60;99.90;;;;;;5053983;28;20120;-70
2022/10/26 11:03:21;;;;;;;19.08;9.27;;;15.80;99.90;;;;;;5053761;28;20021;-71
2022/10/26 11:06:10;;;;;;;29.63;9.98;;;16.10;99.90;;;;;;5054202;28;20400;-71
2022/10/26 11:08:47;;;;;;;17.70;8.00;;;16.00;99.90;;;;;;5060637;28;20036;-70
2022/10/26 11:11:19;;;;;;;13.25;8.52;;;16.30;99.90;;;;;;5074055;28;20070;-70
2022/10/26 11:13:54;;;;;;;23.35;8.90;;;16.30;99.90;;;;;;5073655;28;20480;-70
2022/10/26 11:16:30;;;;;;;20.20;8.82;;;16.20;99.90;;;;;;5073676;28;20103;-70
2022/10/26 11:19:02;;;;;;;17.27;7.47;;;16.20;99.90;;;;;;5073849;28;20463;-70
2022/10/26 11:21:29;;;;;;;16.08;8.20;;;16.10;99.90;;;;;;5046317;28;20091;-70
2022/10/26 11:24:16;;;;;;;16.70;8.02;;;16.10;99.90;;;;;;5053757;28;20021;-70
2022/10/26 11:26:48;;;;;;;13.70;7.45;;;16.10;99.90;;;;;;5053530;28;20053;-71
2022/10/26 11:29:42;;;;;;;13.85;8.70;;;16.20;99.90;;;;;;5053407;28;20021;-69
2022/10/26 11:32:24;;;;;;;21.35;7.85;;;16.30;99.90;;;;;;5072515;28;20035;-70
2022/10/26 11:35:20;;;;;;;18.88;8.27;;;16.30;99.90;;;;;;5073234;28;20430;-70
2022/10/26 11:37:58;;;;;;;15.00;9.10;;;16.40;99.90;;;;;;5054560;28;20025;-70
2022/10/26 11:40:26;;;;;;;18.13;8.10;;;16.40;99.90;;;;;;5053682;28;20017;-70
2022/10/26 11:43:12;;;;;;;19.08;7.20;;;16.40;99.90;;;;;;5053507;28;20029;-70
2022/10/26 11:45:44;;;;;;;11.32;7.28;;;16.40;99.90;;;;;;5053553;28;20044;-71
2022/10/26 11:48:23;;;;;;;17.83;7.57;;;16.40;99.90;;;;;;5066369;28;20107;-71
2022/10/26 11:50:57;;;;;;;17.98;7.53;;;16.50;99.90;;;;;;5073433;28;20472;-70
2022/10/26 11:53:43;;;;;;;20.70;7.85;;;16.50;99.90;;;;;;5054276;28;20079;-70
2022/10/26 11:56:37;;;;;;;17.75;6.80;;;16.60;99.90;;;;;;5073409;28;20111;-70
2022/10/26 11:59:05;;;;;;;20.13;6.45;;;16.80;99.90;;;;;;5046497;28;20083;-71
2022/10/26 12:01:33;;;;;;;11.00;6.05;;;16.80;99.90;;;;;;5052890;28;20048;-70
2022/10/26 12:04:00;;;;;;;17.15;8.18;;;17.00;99.90;;;;;;5055210;28;20021;-71
2022/10/26 12:06:31;;;;;;;13.13;6.50;;;16.90;99.90;;;;;;5053138;28;20048;-71
2022/10/26 12:09:00;;;;;;;9.60;5.65;;;17.00;99.90;;;;;;5065785;28;20025;-70
2022/10/26 12:11:42;;;;;;;18.80;8.25;;;17.00;99.90;;;;;;5072849;28;20047;-71
2022/10/26 12:14:20;;;;;;;13.23;5.88;;;17.00;99.90;;;;;;5067677;28;20028;-70
2022/10/26 12:16:49;;;;;;;13.32;6.10;;;17.00;99.90;;;;;;5054158;28;20033;-71
2022/10/26 12:19:37;;;;;;;14.10;6.45;;;16.90;99.90;;;;;;5052821;28;20033;-71
2022/10/26 12:22:03;;;;;;;14.15;6.22;;;16.90;99.90;;;;;;5051434;28;20025;-70
2022/10/26 12:24:34;;;;;;;18.58;6.35;;;16.80;99.90;;;;;;5053077;28;20499;-70
2022/10/26 12:27:04;;;;;;;17.55;6.60;;;16.70;99.90;;;;;;5037406;28;20381;-71
2022/10/26 12:29:30;;;;;;;10.27;6.05;;;16.70;99.90;;;;;;5053409;28;20028;-71
2022/10/26 12:31:56;;;;;;;11.07;5.55;;;16.60;99.90;;;;;;5064538;28;20111;-70
2022/10/26 12:34:45;;;;;;;11.93;5.97;;;16.70;99.90;;;;;;5072887;28;20103;-70
2022/10/26 12:37:27;;;;;;;16.02;5.10;;;16.70;99.90;;;;;;5059023;28;20603;-71
2022/10/26 12:39:52;;;;;;;15.95;5.05;;;16.70;99.90;;;;;;5053000;28;20476;-70
2022/10/26 12:42:24;;;;;;;11.43;4.90;;;16.70;99.90;;;;;;5056838;28;20020;-70
2022/10/26 12:44:52;;;;;;;14.45;5.50;;;16.60;99.90;;;;;;5073004;28;20020;-70
2022/10/26 12:47:27;;;;;;;10.95;3.83;;;16.50;99.90;;;;;;5073807;28;20033;-70
2022/10/26 12:50:05;;;;;;;11.05;4.20;;;16.60;99.90;;;;;;5074417;28;20033;-73
2022/10/26 12:52:41;;;;;;;7.30;4.55;;;16.50;99.90;;;;;;5076780;28;20025;-71